sensor_id;sensor_type;location;lat;lon;timestamp;P1;durP1;ratioP1;P2;durP2;ratioP2
57327;SDS011;43162;51.040;18.244;2023-03-23T00:01:17;11.40;;;7.50;;
57327;SDS011;43162;51.040;18.244;2023-03-23T00:03:45;15.00;;;7.60;;
57327;SDS011;43162;51.040;18.244;2023-03-23T00:06:12;13.00;;;8.40;;
57327;SDS011;43162;51.040;18.244;2023-03-23T00:08:49;14.20;;;7.50;;
57327;SDS011;43162;51.040;18.244;2023-03-23T00:11:19;14.60;;;8.50;;
57327;SDS011;43162;51.040;18.244;2023-03-23T00:13:46;22.80;;;10.70;;
57327;SDS011;43162;51.040;18.244;2023-03-23T00:18:48;18.20;;;10.30;;
57327;SDS011;43162;51.040;18.244;2023-03-23T00:21:21;22.60;;;10.80;;
57327;SDS011;43162;51.040;18.244;2023-03-23T00:24:09;17.90;;;10.50;;
57327;SDS011;43162;51.040;18.244;2023-03-23T00:26:37;15.90;;;9.80;;
57327;SDS011;43162;51.040;18.244;2023-03-23T00:29:12;22.00;;;9.40;;
57327;SDS011;43162;51.040;18.244;2023-03-23T00:31:39;19.40;;;9.30;;
57327;SDS011;43162;51.040;18.244;2023-03-23T00:34:05;16.50;;;9.00;;
57327;SDS011;43162;51.040;18.244;2023-03-23T00:36:32;17.50;;;10.00;;
57327;SDS011;43162;51.040;18.244;2023-03-23T00:39:03;19.80;;;10.70;;
57327;SDS011;43162;51.040;18.244;2023-03-23T00:41:29;15.60;;;10.70;;
57327;SDS011;43162;51.040;18.244;2023-03-23T00:43:56;18.10;;;11.50;;
57327;SDS011;43162;51.040;18.244;2023-03-23T00:46:23;17.60;;;10.30;;
57327;SDS011;43162;51.040;18.244;2023-03-23T00:48:49;17.40;;;10.70;;
57327;SDS011;43162;51.040;18.244;2023-03-23T00:51:16;15.70;;;9.70;;
57327;SDS011;43162;51.040;18.244;2023-03-23T00:53:43;13.50;;;8.90;;
57327;SDS011;43162;51.040;18.244;2023-03-23T00:56:08;11.90;;;8.20;;
57327;SDS011;43162;51.040;18.244;2023-03-23T00:58:34;16.60;;;8.20;;
57327;SDS011;43162;51.040;18.244;2023-03-23T01:01:01;17.10;;;9.00;;
57327;SDS011;43162;51.040;18.244;2023-03-23T01:03:27;23.20;;;11.00;;
57327;SDS011;43162;51.040;18.244;2023-03-23T01:05:53;24.40;;;12.00;;
57327;SDS011;43162;51.040;18.244;2023-03-23T01:08:21;20.60;;;11.40;;
57327;SDS011;43162;51.040;18.244;2023-03-23T01:10:47;19.00;;;10.50;;
57327;SDS011;43162;51.040;18.244;2023-03-23T01:13:13;17.70;;;10.00;;
57327;SDS011;43162;51.040;18.244;2023-03-23T01:15:40;18.80;;;10.70;;
57327;SDS011;43162;51.040;18.244;2023-03-23T01:18:07;15.10;;;9.00;;
57327;SDS011;43162;51.040;18.244;2023-03-23T01:20:34;15.80;;;9.40;;
57327;SDS011;43162;51.040;18.244;2023-03-23T01:23:01;16.90;;;9.20;;
57327;SDS011;43162;51.040;18.244;2023-03-23T01:25:28;12.50;;;8.00;;
57327;SDS011;43162;51.040;18.244;2023-03-23T01:27:54;14.70;;;8.00;;
57327;SDS011;43162;51.040;18.244;2023-03-23T01:30:21;15.00;;;8.40;;
57327;SDS011;43162;51.040;18.244;2023-03-23T01:32:46;13.60;;;9.00;;
57327;SDS011;43162;51.040;18.244;2023-03-23T01:35:12;13.70;;;7.70;;
57327;SDS011;43162;51.040;18.244;2023-03-23T01:37:38;11.90;;;7.80;;
57327;SDS011;43162;51.040;18.244;2023-03-23T01:40:05;19.70;;;9.10;;
57327;SDS011;43162;51.040;18.244;2023-03-23T01:42:33;16.00;;;8.50;;
57327;SDS011;43162;51.040;18.244;2023-03-23T01:53:22;15.00;;;8.00;;
57327;SDS011;43162;51.040;18.244;2023-03-23T01:55:52;14.30;;;8.70;;
57327;SDS011;43162;51.040;18.244;2023-03-23T01:58:19;15.40;;;8.50;;
57327;SDS011;43162;51.040;18.244;2023-03-23T02:00:47;11.40;;;7.90;;
57327;SDS011;43162;51.040;18.244;2023-03-23T02:03:13;13.60;;;8.60;;
57327;SDS011;43162;51.040;18.244;2023-03-23T02:05:41;11.20;;;7.40;;
57327;SDS011;43162;51.040;18.244;2023-03-23T02:08:08;14.90;;;7.90;;
57327;SDS011;43162;51.040;18.244;2023-03-23T02:10:35;13.00;;;8.10;;
57327;SDS011;43162;51.040;18.244;2023-03-23T02:13:02;17.40;;;9.10;;
57327;SDS011;43162;51.040;18.244;2023-03-23T02:30:31;15.20;;;7.50;;
57327;SDS011;43162;51.040;18.244;2023-03-23T02:33:26;13.90;;;8.00;;
57327;SDS011;43162;51.040;18.244;2023-03-23T02:36:01;17.10;;;9.30;;
57327;SDS011;43162;51.040;18.244;2023-03-23T02:38:51;16.80;;;8.70;;
57327;SDS011;43162;51.040;18.244;2023-03-23T02:41:22;15.70;;;9.40;;
57327;SDS011;43162;51.040;18.244;2023-03-23T02:43:49;17.50;;;9.70;;
57327;SDS011;43162;51.040;18.244;2023-03-23T02:46:16;16.00;;;8.70;;
57327;SDS011;43162;51.040;18.244;2023-03-23T02:48:42;15.00;;;9.30;;
57327;SDS011;43162;51.040;18.244;2023-03-23T02:51:10;14.20;;;7.80;;
57327;SDS011;43162;51.040;18.244;2023-03-23T02:53:37;16.50;;;8.60;;
57327;SDS011;43162;51.040;18.244;2023-03-23T02:56:06;13.90;;;8.10;;
57327;SDS011;43162;51.040;18.244;2023-03-23T02:58:33;14.70;;;8.70;;
57327;SDS011;43162;51.040;18.244;2023-03-23T03:00:59;10.10;;;7.20;;
57327;SDS011;43162;51.040;18.244;2023-03-23T03:03:26;14.70;;;7.90;;
57327;SDS011;43162;51.040;18.244;2023-03-23T03:06:16;10.10;;;8.30;;
57327;SDS011;43162;51.040;18.244;2023-03-23T03:08:49;12.40;;;8.40;;
57327;SDS011;43162;51.040;18.244;2023-03-23T03:11:18;11.00;;;8.70;;
57327;SDS011;43162;51.040;18.244;2023-03-23T03:13:55;15.50;;;8.90;;
57327;SDS011;43162;51.040;18.244;2023-03-23T03:19:01;13.90;;;8.40;;
57327;SDS011;43162;51.040;18.244;2023-03-23T03:21:32;12.00;;;9.20;;
57327;SDS011;43162;51.040;18.244;2023-03-23T03:24:00;16.50;;;9.00;;
57327;SDS011;43162;51.040;18.244;2023-03-23T03:26:27;12.50;;;8.50;;
57327;SDS011;43162;51.040;18.244;2023-03-23T03:28:54;17.40;;;8.40;;
57327;SDS011;43162;51.040;18.244;2023-03-23T03:31:23;13.70;;;9.20;;
57327;SDS011;43162;51.040;18.244;2023-03-23T03:33:51;16.10;;;9.10;;
57327;SDS011;43162;51.040;18.244;2023-03-23T03:36:18;13.10;;;9.20;;
57327;SDS011;43162;51.040;18.244;2023-03-23T03:38:47;17.90;;;9.20;;
57327;SDS011;43162;51.040;18.244;2023-03-23T03:41:14;15.40;;;8.70;;
57327;SDS011;43162;51.040;18.244;2023-03-23T03:43:40;12.30;;;8.30;;
57327;SDS011;43162;51.040;18.244;2023-03-23T03:46:06;16.70;;;9.20;;
57327;SDS011;43162;51.040;18.244;2023-03-23T03:48:31;11.20;;;8.10;;
57327;SDS011;43162;51.040;18.244;2023-03-23T03:50:57;16.80;;;8.80;;
57327;SDS011;43162;51.040;18.244;2023-03-23T03:53:28;13.10;;;8.10;;
57327;SDS011;43162;51.040;18.244;2023-03-23T03:55:55;11.40;;;8.10;;
57327;SDS011;43162;51.040;18.244;2023-03-23T03:58:25;13.50;;;8.90;;
57327;SDS011;43162;51.040;18.244;2023-03-23T04:00:57;13.60;;;8.80;;
57327;SDS011;43162;51.040;18.244;2023-03-23T04:03:24;17.80;;;10.50;;
57327;SDS011;43162;51.040;18.244;2023-03-23T04:05:52;10.80;;;8.10;;
57327;SDS011;43162;51.040;18.244;2023-03-23T04:08:20;14.00;;;8.30;;
57327;SDS011;43162;51.040;18.244;2023-03-23T04:10:49;13.30;;;8.50;;
57327;SDS011;43162;51.040;18.244;2023-03-23T04:13:15;14.20;;;8.70;;
57327;SDS011;43162;51.040;18.244;2023-03-23T04:15:42;11.40;;;8.40;;
57327;SDS011;43162;51.040;18.244;2023-03-23T04:18:09;12.70;;;8.30;;
57327;SDS011;43162;51.040;18.244;2023-03-23T04:20:34;14.70;;;9.40;;
57327;SDS011;43162;51.040;18.244;2023-03-23T04:23:00;19.10;;;9.00;;
57327;SDS011;43162;51.040;18.244;2023-03-23T04:25:27;14.20;;;8.10;;
57327;SDS011;43162;51.040;18.244;2023-03-23T04:27:53;16.00;;;8.30;;
57327;SDS011;43162;51.040;18.244;2023-03-23T04:30:20;10.10;;;7.50;;
57327;SDS011;43162;51.040;18.244;2023-03-23T04:32:47;13.20;;;8.50;;
57327;SDS011;43162;51.040;18.244;2023-03-23T04:35:16;12.40;;;8.70;;
57327;SDS011;43162;51.040;18.244;2023-03-23T04:37:43;13.10;;;7.70;;
57327;SDS011;43162;51.040;18.244;2023-03-23T04:40:09;12.20;;;8.70;;
57327;SDS011;43162;51.040;18.244;2023-03-23T04:42:40;16.50;;;9.20;;
57327;SDS011;43162;51.040;18.244;2023-03-23T04:45:10;15.30;;;9.40;;
57327;SDS011;43162;51.040;18.244;2023-03-23T04:50:10;26.90;;;10.40;;
57327;SDS011;43162;51.040;18.244;2023-03-23T04:52:39;15.80;;;10.30;;
57327;SDS011;43162;51.040;18.244;2023-03-23T04:55:10;17.40;;;10.10;;
57327;SDS011;43162;51.040;18.244;2023-03-23T04:57:36;15.60;;;9.90;;
57327;SDS011;43162;51.040;18.244;2023-03-23T05:00:03;15.30;;;10.80;;
57327;SDS011;43162;51.040;18.244;2023-03-23T05:02:37;20.80;;;10.80;;
57327;SDS011;43162;51.040;18.244;2023-03-23T05:05:07;17.60;;;10.50;;
57327;SDS011;43162;51.040;18.244;2023-03-23T05:07:33;16.40;;;10.40;;
57327;SDS011;43162;51.040;18.244;2023-03-23T05:10:00;19.90;;;10.70;;
57327;SDS011;43162;51.040;18.244;2023-03-23T05:12:25;19.10;;;10.70;;
57327;SDS011;43162;51.040;18.244;2023-03-23T05:14:51;19.30;;;10.50;;
57327;SDS011;43162;51.040;18.244;2023-03-23T05:17:17;19.50;;;9.80;;
57327;SDS011;43162;51.040;18.244;2023-03-23T05:19:44;14.70;;;9.30;;
57327;SDS011;43162;51.040;18.244;2023-03-23T05:22:13;19.60;;;11.00;;
57327;SDS011;43162;51.040;18.244;2023-03-23T05:24:39;27.70;;;12.20;;
57327;SDS011;43162;51.040;18.244;2023-03-23T05:27:08;25.90;;;13.00;;
57327;SDS011;43162;51.040;18.244;2023-03-23T05:29:34;21.60;;;11.10;;
57327;SDS011;43162;51.040;18.244;2023-03-23T05:32:09;26.30;;;12.00;;
57327;SDS011;43162;51.040;18.244;2023-03-23T05:34:35;20.60;;;10.80;;
57327;SDS011;43162;51.040;18.244;2023-03-23T05:37:02;18.30;;;10.70;;
57327;SDS011;43162;51.040;18.244;2023-03-23T05:39:29;30.40;;;11.70;;
57327;SDS011;43162;51.040;18.244;2023-03-23T05:41:56;24.80;;;13.30;;
57327;SDS011;43162;51.040;18.244;2023-03-23T05:44:22;20.40;;;14.00;;
57327;SDS011;43162;51.040;18.244;2023-03-23T05:46:48;24.30;;;13.30;;
57327;SDS011;43162;51.040;18.244;2023-03-23T05:49:15;22.60;;;11.90;;
57327;SDS011;43162;51.040;18.244;2023-03-23T05:51:44;24.40;;;12.10;;
57327;SDS011;43162;51.040;18.244;2023-03-23T05:54:11;20.00;;;11.50;;
57327;SDS011;43162;51.040;18.244;2023-03-23T05:56:38;19.80;;;11.40;;
57327;SDS011;43162;51.040;18.244;2023-03-23T05:59:04;18.30;;;11.10;;
57327;SDS011;43162;51.040;18.244;2023-03-23T06:01:29;14.70;;;9.30;;
57327;SDS011;43162;51.040;18.244;2023-03-23T06:03:57;21.60;;;11.10;;
57327;SDS011;43162;51.040;18.244;2023-03-23T06:06:27;14.30;;;10.00;;
57327;SDS011;43162;51.040;18.244;2023-03-23T06:08:54;19.90;;;10.20;;
57327;SDS011;43162;51.040;18.244;2023-03-23T06:11:22;16.50;;;10.00;;
57327;SDS011;43162;51.040;18.244;2023-03-23T06:13:49;16.50;;;9.90;;
57327;SDS011;43162;51.040;18.244;2023-03-23T06:16:15;16.00;;;10.00;;
57327;SDS011;43162;51.040;18.244;2023-03-23T06:18:41;22.20;;;12.10;;
57327;SDS011;43162;51.040;18.244;2023-03-23T06:21:08;30.10;;;13.40;;
57327;SDS011;43162;51.040;18.244;2023-03-23T06:23:35;20.60;;;11.20;;
57327;SDS011;43162;51.040;18.244;2023-03-23T06:26:02;19.40;;;11.50;;
57327;SDS011;43162;51.040;18.244;2023-03-23T06:28:31;16.40;;;11.50;;
57327;SDS011;43162;51.040;18.244;2023-03-23T06:31:04;17.30;;;11.00;;
57327;SDS011;43162;51.040;18.244;2023-03-23T06:33:35;18.00;;;11.30;;
57327;SDS011;43162;51.040;18.244;2023-03-23T06:36:01;16.20;;;10.90;;
57327;SDS011;43162;51.040;18.244;2023-03-23T06:38:27;26.00;;;13.80;;
57327;SDS011;43162;51.040;18.244;2023-03-23T06:40:53;17.20;;;10.00;;
57327;SDS011;43162;51.040;18.244;2023-03-23T06:43:19;13.20;;;9.80;;
57327;SDS011;43162;51.040;18.244;2023-03-23T06:45:45;20.60;;;10.20;;
57327;SDS011;43162;51.040;18.244;2023-03-23T06:48:11;16.40;;;10.80;;
57327;SDS011;43162;51.040;18.244;2023-03-23T06:50:37;17.60;;;11.10;;
57327;SDS011;43162;51.040;18.244;2023-03-23T06:53:03;20.00;;;10.60;;
57327;SDS011;43162;51.040;18.244;2023-03-23T06:55:29;24.60;;;10.30;;
57327;SDS011;43162;51.040;18.244;2023-03-23T06:57:54;17.90;;;9.40;;
57327;SDS011;43162;51.040;18.244;2023-03-23T07:00:20;18.60;;;9.40;;
57327;SDS011;43162;51.040;18.244;2023-03-23T07:02:45;15.20;;;8.80;;
57327;SDS011;43162;51.040;18.244;2023-03-23T07:05:12;15.40;;;8.80;;
57327;SDS011;43162;51.040;18.244;2023-03-23T07:07:40;13.30;;;8.00;;
57327;SDS011;43162;51.040;18.244;2023-03-23T07:10:06;18.00;;;9.40;;
57327;SDS011;43162;51.040;18.244;2023-03-23T07:12:34;13.20;;;9.00;;
57327;SDS011;43162;51.040;18.244;2023-03-23T07:15:01;12.70;;;10.00;;
57327;SDS011;43162;51.040;18.244;2023-03-23T07:17:30;13.00;;;8.40;;
57327;SDS011;43162;51.040;18.244;2023-03-23T07:20:00;13.70;;;8.10;;
57327;SDS011;43162;51.040;18.244;2023-03-23T07:22:25;13.00;;;7.50;;
57327;SDS011;43162;51.040;18.244;2023-03-23T07:24:51;10.80;;;7.50;;
57327;SDS011;43162;51.040;18.244;2023-03-23T07:27:17;13.00;;;7.50;;
57327;SDS011;43162;51.040;18.244;2023-03-23T07:29:42;15.80;;;9.00;;
57327;SDS011;43162;51.040;18.244;2023-03-23T07:32:10;15.10;;;8.30;;
57327;SDS011;43162;51.040;18.244;2023-03-23T07:34:37;14.50;;;7.60;;
57327;SDS011;43162;51.040;18.244;2023-03-23T07:37:03;10.60;;;7.70;;
57327;SDS011;43162;51.040;18.244;2023-03-23T07:39:30;9.70;;;6.30;;
57327;SDS011;43162;51.040;18.244;2023-03-23T07:41:56;9.10;;;6.50;;
57327;SDS011;43162;51.040;18.244;2023-03-23T07:44:22;9.00;;;5.80;;
57327;SDS011;43162;51.040;18.244;2023-03-23T07:46:48;13.90;;;6.90;;
57327;SDS011;43162;51.040;18.244;2023-03-23T07:49:14;14.10;;;7.50;;
57327;SDS011;43162;51.040;18.244;2023-03-23T07:51:40;15.30;;;7.20;;
57327;SDS011;43162;51.040;18.244;2023-03-23T07:54:06;17.10;;;10.50;;
57327;SDS011;43162;51.040;18.244;2023-03-23T07:56:36;22.50;;;11.00;;
57327;SDS011;43162;51.040;18.244;2023-03-23T07:59:02;13.60;;;10.30;;
57327;SDS011;43162;51.040;18.244;2023-03-23T08:01:30;11.30;;;8.10;;
57327;SDS011;43162;51.040;18.244;2023-03-23T08:03:56;16.00;;;7.70;;
57327;SDS011;43162;51.040;18.244;2023-03-23T08:06:23;14.40;;;12.00;;
57327;SDS011;43162;51.040;18.244;2023-03-23T08:08:49;21.30;;;11.60;;
57327;SDS011;43162;51.040;18.244;2023-03-23T08:11:16;15.00;;;8.40;;
57327;SDS011;43162;51.040;18.244;2023-03-23T08:13:42;10.90;;;7.00;;
57327;SDS011;43162;51.040;18.244;2023-03-23T08:16:11;17.50;;;7.60;;
57327;SDS011;43162;51.040;18.244;2023-03-23T08:18:37;8.00;;;6.80;;
57327;SDS011;43162;51.040;18.244;2023-03-23T08:21:04;13.20;;;7.50;;
57327;SDS011;43162;51.040;18.244;2023-03-23T08:23:34;14.70;;;8.70;;
57327;SDS011;43162;51.040;18.244;2023-03-23T08:26:02;13.60;;;7.80;;
57327;SDS011;43162;51.040;18.244;2023-03-23T08:28:30;20.40;;;11.00;;
57327;SDS011;43162;51.040;18.244;2023-03-23T08:30:55;13.00;;;9.30;;
57327;SDS011;43162;51.040;18.244;2023-03-23T08:33:22;15.60;;;9.90;;
57327;SDS011;43162;51.040;18.244;2023-03-23T08:35:57;12.10;;;7.90;;
57327;SDS011;43162;51.040;18.244;2023-03-23T08:38:24;7.70;;;6.60;;
57327;SDS011;43162;51.040;18.244;2023-03-23T08:40:50;11.10;;;6.50;;
57327;SDS011;43162;51.040;18.244;2023-03-23T08:43:17;10.10;;;6.70;;
57327;SDS011;43162;51.040;18.244;2023-03-23T08:45:43;8.10;;;6.30;;
57327;SDS011;43162;51.040;18.244;2023-03-23T08:48:09;12.30;;;6.00;;
57327;SDS011;43162;51.040;18.244;2023-03-23T08:50:36;20.10;;;12.10;;
57327;SDS011;43162;51.040;18.244;2023-03-23T08:53:01;8.80;;;5.30;;
57327;SDS011;43162;51.040;18.244;2023-03-23T08:55:28;11.10;;;5.60;;
57327;SDS011;43162;51.040;18.244;2023-03-23T08:57:54;11.90;;;6.70;;
57327;SDS011;43162;51.040;18.244;2023-03-23T09:00:20;8.20;;;5.90;;
57327;SDS011;43162;51.040;18.244;2023-03-23T09:02:50;8.30;;;4.80;;
57327;SDS011;43162;51.040;18.244;2023-03-23T09:05:20;13.20;;;6.10;;
57327;SDS011;43162;51.040;18.244;2023-03-23T09:07:50;9.30;;;5.40;;
57327;SDS011;43162;51.040;18.244;2023-03-23T09:10:17;6.30;;;4.60;;
57327;SDS011;43162;51.040;18.244;2023-03-23T09:12:43;9.20;;;5.10;;
57327;SDS011;43162;51.040;18.244;2023-03-23T09:15:11;15.30;;;6.30;;
57327;SDS011;43162;51.040;18.244;2023-03-23T09:17:44;40.40;;;12.50;;
57327;SDS011;43162;51.040;18.244;2023-03-23T09:20:11;33.10;;;11.00;;
57327;SDS011;43162;51.040;18.244;2023-03-23T09:22:45;9.80;;;5.60;;
57327;SDS011;43162;51.040;18.244;2023-03-23T09:25:13;10.60;;;5.40;;
57327;SDS011;43162;51.040;18.244;2023-03-23T09:27:41;8.30;;;4.90;;
57327;SDS011;43162;51.040;18.244;2023-03-23T09:30:08;7.70;;;4.70;;
57327;SDS011;43162;51.040;18.244;2023-03-23T09:32:36;14.00;;;5.90;;
57327;SDS011;43162;51.040;18.244;2023-03-23T09:35:04;6.70;;;4.30;;
57327;SDS011;43162;51.040;18.244;2023-03-23T09:37:35;7.30;;;4.10;;
57327;SDS011;43162;51.040;18.244;2023-03-23T09:40:02;7.60;;;4.70;;
57327;SDS011;43162;51.040;18.244;2023-03-23T09:53:39;7.30;;;3.80;;
57327;SDS011;43162;51.040;18.244;2023-03-23T09:56:11;7.40;;;3.90;;
57327;SDS011;43162;51.040;18.244;2023-03-23T09:59:01;5.20;;;3.10;;
57327;SDS011;43162;51.040;18.244;2023-03-23T10:01:32;4.10;;;3.20;;
57327;SDS011;43162;51.040;18.244;2023-03-23T10:04:21;6.00;;;2.50;;
57327;SDS011;43162;51.040;18.244;2023-03-23T10:06:48;3.70;;;2.70;;
57327;SDS011;43162;51.040;18.244;2023-03-23T10:09:16;7.30;;;2.80;;
57327;SDS011;43162;51.040;18.244;2023-03-23T10:11:55;4.20;;;2.50;;
57327;SDS011;43162;51.040;18.244;2023-03-23T10:14:54;2.80;;;2.20;;
57327;SDS011;43162;51.040;18.244;2023-03-23T10:17:37;4.60;;;2.20;;
57327;SDS011;43162;51.040;18.244;2023-03-23T10:29:08;2.90;;;1.90;;
57327;SDS011;43162;51.040;18.244;2023-03-23T10:37:27;2.70;;;1.70;;
57327;SDS011;43162;51.040;18.244;2023-03-23T10:40:05;2.00;;;1.20;;
57327;SDS011;43162;51.040;18.244;2023-03-23T10:42:37;2.50;;;1.30;;
57327;SDS011;43162;51.040;18.244;2023-03-23T10:45:15;10.60;;;1.80;;
57327;SDS011;43162;51.040;18.244;2023-03-23T10:50:30;2.10;;;1.30;;
57327;SDS011;43162;51.040;18.244;2023-03-23T10:52:59;1.80;;;1.20;;
57327;SDS011;43162;51.040;18.244;2023-03-23T10:55:35;2.90;;;0.90;;
57327;SDS011;43162;51.040;18.244;2023-03-23T10:58:07;3.70;;;1.00;;
57327;SDS011;43162;51.040;18.244;2023-03-23T11:00:44;1.80;;;1.10;;
57327;SDS011;43162;51.040;18.244;2023-03-23T11:05:49;2.00;;;0.80;;
57327;SDS011;43162;51.040;18.244;2023-03-23T11:08:18;3.30;;;0.90;;
57327;SDS011;43162;51.040;18.244;2023-03-23T11:13:42;4.30;;;0.90;;
57327;SDS011;43162;51.040;18.244;2023-03-23T11:16:09;2.30;;;0.80;;
57327;SDS011;43162;51.040;18.244;2023-03-23T11:18:40;0.90;;;0.80;;
57327;SDS011;43162;51.040;18.244;2023-03-23T11:21:11;3.10;;;0.90;;
57327;SDS011;43162;51.040;18.244;2023-03-23T11:23:41;1.70;;;0.90;;
57327;SDS011;43162;51.040;18.244;2023-03-23T11:26:15;1.40;;;0.80;;
57327;SDS011;43162;51.040;18.244;2023-03-23T11:31:39;1.20;;;0.70;;
57327;SDS011;43162;51.040;18.244;2023-03-23T11:36:55;1.20;;;0.80;;
57327;SDS011;43162;51.040;18.244;2023-03-23T11:39:26;1.70;;;0.90;;
57327;SDS011;43162;51.040;18.244;2023-03-23T11:41:53;5.30;;;0.90;;
57327;SDS011;43162;51.040;18.244;2023-03-23T11:44:21;1.80;;;0.90;;
57327;SDS011;43162;51.040;18.244;2023-03-23T11:47:02;0.70;;;0.40;;
57327;SDS011;43162;51.040;18.244;2023-03-23T11:52:23;1.00;;;0.80;;
57327;SDS011;43162;51.040;18.244;2023-03-23T11:54:58;1.90;;;1.20;;
57327;SDS011;43162;51.040;18.244;2023-03-23T11:57:27;1.90;;;1.00;;
57327;SDS011;43162;51.040;18.244;2023-03-23T11:59:55;1.40;;;1.10;;
57327;SDS011;43162;51.040;18.244;2023-03-23T12:07:54;4.30;;;1.40;;
57327;SDS011;43162;51.040;18.244;2023-03-23T12:13:40;2.80;;;1.30;;
57327;SDS011;43162;51.040;18.244;2023-03-23T12:24:29;1.80;;;1.20;;
57327;SDS011;43162;51.040;18.244;2023-03-23T12:27:16;5.00;;;1.50;;
57327;SDS011;43162;51.040;18.244;2023-03-23T12:30:18;2.60;;;1.00;;
57327;SDS011;43162;51.040;18.244;2023-03-23T12:41:16;1.50;;;0.90;;
57327;SDS011;43162;51.040;18.244;2023-03-23T12:51:45;2.00;;;1.40;;
57327;SDS011;43162;51.040;18.244;2023-03-23T12:54:37;2.50;;;1.10;;
57327;SDS011;43162;51.040;18.244;2023-03-23T13:02:59;4.00;;;1.10;;
57327;SDS011;43162;51.040;18.244;2023-03-23T13:05:29;3.00;;;1.50;;
57327;SDS011;43162;51.040;18.244;2023-03-23T13:10:48;3.10;;;1.10;;
57327;SDS011;43162;51.040;18.244;2023-03-23T13:13:19;1.80;;;0.90;;
57327;SDS011;43162;51.040;18.244;2023-03-23T13:21:16;3.50;;;1.00;;
57327;SDS011;43162;51.040;18.244;2023-03-23T13:24:05;3.00;;;1.00;;
57327;SDS011;43162;51.040;18.244;2023-03-23T13:26:38;2.50;;;1.00;;
57327;SDS011;43162;51.040;18.244;2023-03-23T13:29:06;3.80;;;0.80;;
57327;SDS011;43162;51.040;18.244;2023-03-23T13:31:39;2.60;;;1.40;;
57327;SDS011;43162;51.040;18.244;2023-03-23T13:34:11;1.10;;;0.80;;
57327;SDS011;43162;51.040;18.244;2023-03-23T13:36:45;1.40;;;1.00;;
57327;SDS011;43162;51.040;18.244;2023-03-23T13:39:31;2.00;;;0.80;;
57327;SDS011;43162;51.040;18.244;2023-03-23T13:42:18;3.00;;;1.20;;
57327;SDS011;43162;51.040;18.244;2023-03-23T13:49:56;3.10;;;1.40;;
57327;SDS011;43162;51.040;18.244;2023-03-23T14:05:38;3.80;;;1.50;;
57327;SDS011;43162;51.040;18.244;2023-03-23T14:10:44;4.50;;;1.40;;
57327;SDS011;43162;51.040;18.244;2023-03-23T14:13:24;1.20;;;0.80;;
57327;SDS011;43162;51.040;18.244;2023-03-23T14:18:23;1.90;;;0.90;;
57327;SDS011;43162;51.040;18.244;2023-03-23T14:20:52;2.00;;;1.10;;
57327;SDS011;43162;51.040;18.244;2023-03-23T14:23:18;3.30;;;1.00;;
57327;SDS011;43162;51.040;18.244;2023-03-23T14:25:45;2.00;;;1.40;;
57327;SDS011;43162;51.040;18.244;2023-03-23T14:28:20;1.80;;;1.00;;
57327;SDS011;43162;51.040;18.244;2023-03-23T14:30:48;1.80;;;0.90;;
57327;SDS011;43162;51.040;18.244;2023-03-23T14:33:18;5.00;;;1.70;;
57327;SDS011;43162;51.040;18.244;2023-03-23T14:35:45;2.90;;;1.00;;
57327;SDS011;43162;51.040;18.244;2023-03-23T14:38:17;7.50;;;1.40;;
57327;SDS011;43162;51.040;18.244;2023-03-23T14:40:46;4.00;;;1.30;;
57327;SDS011;43162;51.040;18.244;2023-03-23T14:43:13;3.50;;;1.40;;
57327;SDS011;43162;51.040;18.244;2023-03-23T14:45:42;6.20;;;2.60;;
57327;SDS011;43162;51.040;18.244;2023-03-23T14:48:08;6.30;;;1.60;;
57327;SDS011;43162;51.040;18.244;2023-03-23T14:50:40;3.40;;;1.60;;
57327;SDS011;43162;51.040;18.244;2023-03-23T14:53:34;2.00;;;1.70;;
57327;SDS011;43162;51.040;18.244;2023-03-23T14:56:11;2.30;;;1.50;;
57327;SDS011;43162;51.040;18.244;2023-03-23T14:58:42;1.20;;;1.10;;
57327;SDS011;43162;51.040;18.244;2023-03-23T15:01:10;2.80;;;1.60;;
57327;SDS011;43162;51.040;18.244;2023-03-23T15:06:09;2.70;;;1.30;;
57327;SDS011;43162;51.040;18.244;2023-03-23T15:08:38;5.80;;;1.50;;
57327;SDS011;43162;51.040;18.244;2023-03-23T15:13:36;7.10;;;1.50;;
57327;SDS011;43162;51.040;18.244;2023-03-23T15:16:11;3.50;;;1.90;;
57327;SDS011;43162;51.040;18.244;2023-03-23T15:18:39;3.10;;;1.60;;
57327;SDS011;43162;51.040;18.244;2023-03-23T15:21:09;3.00;;;1.70;;
57327;SDS011;43162;51.040;18.244;2023-03-23T15:23:40;2.60;;;1.50;;
57327;SDS011;43162;51.040;18.244;2023-03-23T15:26:23;4.90;;;2.20;;
57327;SDS011;43162;51.040;18.244;2023-03-23T15:31:53;3.80;;;2.70;;
57327;SDS011;43162;51.040;18.244;2023-03-23T15:37:01;9.30;;;3.40;;
57327;SDS011;43162;51.040;18.244;2023-03-23T15:39:30;5.80;;;2.70;;
57327;SDS011;43162;51.040;18.244;2023-03-23T15:41:57;8.40;;;2.90;;
57327;SDS011;43162;51.040;18.244;2023-03-23T15:44:30;2.50;;;1.90;;
57327;SDS011;43162;51.040;18.244;2023-03-23T15:47:13;3.60;;;2.00;;
57327;SDS011;43162;51.040;18.244;2023-03-23T15:49:41;4.70;;;1.70;;
57327;SDS011;43162;51.040;18.244;2023-03-23T15:52:08;2.90;;;1.80;;
57327;SDS011;43162;51.040;18.244;2023-03-23T15:54:36;3.00;;;1.90;;
57327;SDS011;43162;51.040;18.244;2023-03-23T15:57:02;3.70;;;2.20;;
57327;SDS011;43162;51.040;18.244;2023-03-23T15:59:30;5.70;;;2.60;;
57327;SDS011;43162;51.040;18.244;2023-03-23T16:01:56;4.20;;;2.60;;
57327;SDS011;43162;51.040;18.244;2023-03-23T16:04:22;7.10;;;2.20;;
57327;SDS011;43162;51.040;18.244;2023-03-23T16:06:47;9.30;;;2.70;;
57327;SDS011;43162;51.040;18.244;2023-03-23T16:09:16;5.10;;;2.90;;
57327;SDS011;43162;51.040;18.244;2023-03-23T16:11:43;6.40;;;3.40;;
57327;SDS011;43162;51.040;18.244;2023-03-23T16:14:09;19.20;;;10.70;;
57327;SDS011;43162;51.040;18.244;2023-03-23T16:16:40;25.50;;;14.80;;
57327;SDS011;43162;51.040;18.244;2023-03-23T16:19:12;33.80;;;19.70;;
57327;SDS011;43162;51.040;18.244;2023-03-23T16:21:40;30.00;;;18.30;;
57327;SDS011;43162;51.040;18.244;2023-03-23T16:24:07;29.40;;;17.50;;
57327;SDS011;43162;51.040;18.244;2023-03-23T16:26:33;33.30;;;19.10;;
57327;SDS011;43162;51.040;18.244;2023-03-23T16:29:00;36.70;;;19.40;;
57327;SDS011;43162;51.040;18.244;2023-03-23T16:31:27;31.50;;;15.50;;
57327;SDS011;43162;51.040;18.244;2023-03-23T16:33:53;24.80;;;13.60;;
57327;SDS011;43162;51.040;18.244;2023-03-23T16:36:19;20.60;;;9.80;;
57327;SDS011;43162;51.040;18.244;2023-03-23T16:38:45;17.50;;;10.30;;
57327;SDS011;43162;51.040;18.244;2023-03-23T16:41:10;18.00;;;9.40;;
57327;SDS011;43162;51.040;18.244;2023-03-23T16:43:36;15.80;;;6.70;;
57327;SDS011;43162;51.040;18.244;2023-03-23T16:46:02;21.50;;;9.10;;
57327;SDS011;43162;51.040;18.244;2023-03-23T16:48:27;20.60;;;9.30;;
57327;SDS011;43162;51.040;18.244;2023-03-23T16:50:53;23.80;;;9.50;;
57327;SDS011;43162;51.040;18.244;2023-03-23T16:53:19;13.70;;;8.30;;
57327;SDS011;43162;51.040;18.244;2023-03-23T16:55:46;15.70;;;7.50;;
57327;SDS011;43162;51.040;18.244;2023-03-23T16:58:13;15.10;;;8.10;;
57327;SDS011;43162;51.040;18.244;2023-03-23T17:00:40;14.30;;;8.30;;
57327;SDS011;43162;51.040;18.244;2023-03-23T17:03:07;16.00;;;8.40;;
57327;SDS011;43162;51.040;18.244;2023-03-23T17:05:34;15.80;;;8.50;;
57327;SDS011;43162;51.040;18.244;2023-03-23T17:08:00;16.70;;;9.70;;
57327;SDS011;43162;51.040;18.244;2023-03-23T17:10:28;16.60;;;10.30;;